createdAt,value
2022-08-24T00:02:12.425Z,99.79
2022-08-24T00:04:42.033Z,100.00
2022-08-24T00:07:25.495Z,99.05
2022-08-24T00:09:58.334Z,99.48
2022-08-24T00:12:28.129Z,100.00
2022-08-24T00:14:57.344Z,100.00
2022-08-24T00:17:26.958Z,100.00
2022-08-24T00:19:56.484Z,100.00
2022-08-24T00:22:25.734Z,100.00
2022-08-24T00:24:55.047Z,100.00
2022-08-24T00:27:24.641Z,100.00
2022-08-24T00:29:53.954Z,100.00
2022-08-24T00:32:23.115Z,100.00
2022-08-24T00:34:58.891Z,100.00
2022-08-24T00:37:29.731Z,100.00
2022-08-24T00:40:00.591Z,100.00
2022-08-24T00:42:30.288Z,100.00
2022-08-24T00:45:00.896Z,100.00
2022-08-24T00:47:36.649Z,100.00
2022-08-24T00:50:15.750Z,100.00
2022-08-24T00:52:53.220Z,100.00
2022-08-24T00:55:38.369Z,100.00
2022-08-24T00:58:17.056Z,100.00
2022-08-24T01:00:53.885Z,100.00
2022-08-24T01:03:23.646Z,100.00
2022-08-24T01:05:52.778Z,100.00
2022-08-24T01:08:22.893Z,100.00
2022-08-24T01:11:02.222Z,100.00
2022-08-24T01:13:34.066Z,100.00
2022-08-24T01:16:09.663Z,100.00
2022-08-24T01:18:53.253Z,100.00
2022-08-24T01:21:29.000Z,100.00
2022-08-24T01:24:05.620Z,100.00
2022-08-24T01:26:42.088Z,100.00
2022-08-24T01:29:25.255Z,100.00
2022-08-24T01:31:55.725Z,100.00
2022-08-24T01:34:25.166Z,100.00
2022-08-24T01:36:58.293Z,99.99
2022-08-24T01:39:32.688Z,99.60
2022-08-24T01:42:03.183Z,99.55
2022-08-24T01:44:38.056Z,99.53
2022-08-24T01:47:12.305Z,99.54
2022-08-24T01:49:45.662Z,98.21
2022-08-24T01:52:24.373Z,98.31
2022-08-24T01:54:55.627Z,98.94
2022-08-24T01:57:27.832Z,98.13
2022-08-24T01:59:58.785Z,98.10
2022-08-24T02:02:32.318Z,97.37
2022-08-24T02:05:02.405Z,97.53
2022-08-24T02:07:34.388Z,97.01
2022-08-24T02:10:03.940Z,95.95
2022-08-24T02:12:33.369Z,95.46
2022-08-24T02:15:04.093Z,95.16
2022-08-24T02:17:33.977Z,94.55
2022-08-24T02:20:04.188Z,93.86
2022-08-24T02:22:34.146Z,93.78
2022-08-24T02:25:04.402Z,92.98
2022-08-24T02:27:33.650Z,92.88
2022-08-24T02:30:02.834Z,92.42
2022-08-24T02:32:32.319Z,93.18
2022-08-24T02:35:01.824Z,91.74
2022-08-24T02:37:31.564Z,91.04
2022-08-24T02:40:00.994Z,90.63
2022-08-24T02:42:30.787Z,90.31
2022-08-24T02:45:01.480Z,90.29
2022-08-24T02:47:32.843Z,89.71
2022-08-24T02:50:11.735Z,89.51
2022-08-24T02:52:42.222Z,88.89
2022-08-24T02:55:20.313Z,88.84
2022-08-24T02:57:53.540Z,88.08
2022-08-24T03:00:24.112Z,86.29
2022-08-24T03:02:55.443Z,86.81
2022-08-24T03:05:28.349Z,87.38
2022-08-24T03:07:58.459Z,86.85
2022-08-24T03:10:28.572Z,87.15
2022-08-24T03:13:00.785Z,86.30
2022-08-24T03:15:31.519Z,86.08
2022-08-24T03:18:00.980Z,86.28
2022-08-24T03:20:30.650Z,86.01
2022-08-24T03:23:00.568Z,84.86
2022-08-24T03:25:30.618Z,85.37
2022-08-24T03:27:59.907Z,84.32
2022-08-24T03:30:30.184Z,83.19
2022-08-24T03:33:01.194Z,83.54
2022-08-24T03:35:30.699Z,83.31
2022-08-24T03:38:01.203Z,83.00
2022-08-24T03:40:30.757Z,82.31
2022-08-24T03:43:01.342Z,81.83
2022-08-24T03:45:31.604Z,81.41
2022-08-24T03:48:01.277Z,80.84
2022-08-24T03:50:32.739Z,81.15
2022-08-24T03:53:02.200Z,81.76
2022-08-24T03:55:31.764Z,81.73
2022-08-24T03:58:01.583Z,80.40
2022-08-24T04:00:30.399Z,79.92
2022-08-24T04:03:00.775Z,79.40
2022-08-24T04:05:35.013Z,79.80
2022-08-24T04:08:06.351Z,78.37
2022-08-24T04:10:38.663Z,78.96
2022-08-24T04:13:09.727Z,79.40
2022-08-24T04:15:42.205Z,79.69
2022-08-24T04:18:12.637Z,77.63
2022-08-24T04:20:44.779Z,78.61
2022-08-24T04:23:20.519Z,77.10
2022-08-24T04:25:53.587Z,78.03
2022-08-24T04:28:24.668Z,76.86
2022-08-24T04:30:53.835Z,77.15
2022-08-24T04:33:40.022Z,77.44
2022-08-24T04:36:11.679Z,77.41
2022-08-24T04:38:44.323Z,77.25
2022-08-24T04:41:46.137Z,76.83
2022-08-24T04:44:18.298Z,76.97
2022-08-24T04:46:48.173Z,76.08
2022-08-24T04:49:17.352Z,76.53
2022-08-24T04:51:47.030Z,74.88
2022-08-24T04:54:18.263Z,74.22
2022-08-24T04:56:56.444Z,75.61
2022-08-24T04:59:26.657Z,76.66
2022-08-24T05:01:58.544Z,73.80
2022-08-24T05:04:27.870Z,74.22
2022-08-24T05:06:59.346Z,74.93
2022-08-24T05:09:29.692Z,74.31
2022-08-24T05:12:02.669Z,74.30
2022-08-24T05:14:40.499Z,73.11
2022-08-24T05:17:10.415Z,73.24
2022-08-24T05:19:40.396Z,72.54
2022-08-24T05:22:09.881Z,72.44
2022-08-24T05:24:44.363Z,71.79
2022-08-24T05:27:14.510Z,71.76
2022-08-24T05:29:47.956Z,70.58
2022-08-24T05:32:18.883Z,69.49
2022-08-24T05:34:49.465Z,72.27
2022-08-24T05:37:19.310Z,70.98
2022-08-24T05:40:14.447Z,69.63
2022-08-24T05:42:46.395Z,70.12
2022-08-24T05:45:17.088Z,71.33
2022-08-24T05:47:46.477Z,71.73
2022-08-24T05:50:38.718Z,70.37
2022-08-24T05:53:09.412Z,70.03
2022-08-24T05:55:42.112Z,70.37
2022-08-24T05:58:13.080Z,70.30
2022-08-24T06:00:53.757Z,70.02
2022-08-24T06:03:23.437Z,70.64
2022-08-24T06:05:56.928Z,71.82
2022-08-24T06:08:26.837Z,71.41
2022-08-24T06:10:58.930Z,70.10
2022-08-24T06:13:29.924Z,69.92
2022-08-24T06:16:22.099Z,70.52
2022-08-24T06:18:55.240Z,69.54
2022-08-24T06:21:29.781Z,68.65
2022-08-24T06:24:01.538Z,68.87
2022-08-24T06:26:50.495Z,67.43
2022-08-24T06:29:21.635Z,69.20
2022-08-24T06:31:56.144Z,68.83
2022-08-24T06:34:27.855Z,68.28
2022-08-24T06:36:58.082Z,67.13
2022-08-24T06:39:27.956Z,66.20
2022-08-24T06:41:59.325Z,65.80
2022-08-24T06:44:33.696Z,68.29
2022-08-24T06:47:13.960Z,66.91
2022-08-24T06:49:43.819Z,66.60
2022-08-24T06:52:14.177Z,66.78
2022-08-24T06:54:44.010Z,66.69
2022-08-24T06:57:13.626Z,66.65
2022-08-24T06:59:44.693Z,66.24
2022-08-24T07:02:17.097Z,65.03
2022-08-24T07:04:46.570Z,63.07
2022-08-24T07:07:33.857Z,65.35
2022-08-24T07:10:04.327Z,66.64
2022-08-24T07:12:33.960Z,66.65
2022-08-24T07:15:03.604Z,66.90
2022-08-24T07:17:38.656Z,65.76
2022-08-24T07:20:10.335Z,65.55
2022-08-24T07:23:04.153Z,66.16
2022-08-24T07:25:35.145Z,65.67
2022-08-24T07:28:08.081Z,65.36
2022-08-24T07:30:43.714Z,64.46
2022-08-24T07:33:15.659Z,62.68
2022-08-24T07:35:45.338Z,63.02
2022-08-24T07:38:14.789Z,63.72
2022-08-24T07:41:14.376Z,64.29
2022-08-24T07:43:41.800Z,63.80
2022-08-24T07:46:13.010Z,63.22
2022-08-24T07:48:43.159Z,63.77
2022-08-24T07:51:16.908Z,63.60
2022-08-24T07:53:54.063Z,63.41
2022-08-24T07:56:30.886Z,64.51
2022-08-24T07:59:03.274Z,64.33
2022-08-24T08:01:32.766Z,64.78
2022-08-24T08:04:02.810Z,64.48
2022-08-24T08:06:33.298Z,64.79
2022-08-24T08:09:07.753Z,64.98
2022-08-24T08:11:37.917Z,65.42
2022-08-24T08:14:06.971Z,66.21
2022-08-24T08:16:36.435Z,65.91
2022-08-24T08:19:13.241Z,65.25
2022-08-24T08:22:06.277Z,65.55
2022-08-24T08:24:45.719Z,63.93
2022-08-24T08:27:18.978Z,62.91
2022-08-24T08:29:50.311Z,62.64
2022-08-24T08:32:21.538Z,62.54
2022-08-24T08:34:52.706Z,63.39
2022-08-24T08:37:22.415Z,62.85
2022-08-24T08:39:57.440Z,62.77
2022-08-24T08:42:45.876Z,62.51
2022-08-24T08:46:02.561Z,63.51
2022-08-24T08:49:25.335Z,63.04
2022-08-24T08:51:57.666Z,63.01
2022-08-24T08:54:46.062Z,63.90
2022-08-24T08:57:49.005Z,61.11
2022-08-24T09:00:24.352Z,62.56
2022-08-24T09:03:34.891Z,62.42
2022-08-24T09:07:01.961Z,61.73
2022-08-24T09:09:55.182Z,61.00
2022-08-24T09:12:41.569Z,61.02
2022-08-24T09:15:19.999Z,61.75
2022-08-24T09:18:16.794Z,61.67
2022-08-24T09:21:17.170Z,62.45
2022-08-24T09:24:24.816Z,61.77
2022-08-24T09:27:16.651Z,62.14
2022-08-24T09:30:07.852Z,59.90
2022-08-24T09:32:51.901Z,59.56
2022-08-24T09:35:32.910Z,59.71
2022-08-24T09:38:32.960Z,59.35
2022-08-24T09:41:14.027Z,61.47
2022-08-24T09:44:20.479Z,61.41
2022-08-24T09:47:04.364Z,62.12
2022-08-24T09:49:57.817Z,62.26
2022-08-24T09:52:51.542Z,62.24
2022-08-24T09:55:45.285Z,62.51
2022-08-24T09:58:27.713Z,62.35
2022-08-24T10:01:10.142Z,63.08
2022-08-24T10:04:09.428Z,65.34
2022-08-24T10:06:53.245Z,65.57
2022-08-24T10:09:40.654Z,65.22
2022-08-24T10:12:25.328Z,63.87
2022-08-24T10:15:00.940Z,64.19
2022-08-24T10:17:48.341Z,64.61
2022-08-24T10:20:27.326Z,64.00
2022-08-24T10:23:09.372Z,63.71
2022-08-24T10:25:42.030Z,64.53
2022-08-24T10:28:32.334Z,65.00
2022-08-24T10:31:19.934Z,64.96
2022-08-24T10:34:17.933Z,64.53
2022-08-24T10:37:16.822Z,63.03
2022-08-24T10:40:11.937Z,63.37
2022-08-24T10:43:26.144Z,63.76
2022-08-24T10:46:46.921Z,63.42
2022-08-24T10:49:36.899Z,63.48
2022-08-24T10:52:20.809Z,64.16
2022-08-24T10:54:50.182Z,64.74
2022-08-24T10:58:11.098Z,65.23
2022-08-24T11:00:40.902Z,65.14
2022-08-24T11:03:28.332Z,64.49
2022-08-24T11:05:58.804Z,65.37
2022-08-24T11:08:31.310Z,65.36
2022-08-24T11:11:16.007Z,64.62
2022-08-24T11:14:01.559Z,64.71
2022-08-24T11:16:36.895Z,65.07
2022-08-24T11:19:30.413Z,65.27
2022-08-24T11:22:06.241Z,66.02
2022-08-24T11:24:47.873Z,67.25
2022-08-24T11:27:31.736Z,66.77
2022-08-24T11:30:08.804Z,67.25
2022-08-24T11:32:40.708Z,66.90
2022-08-24T11:35:37.674Z,66.59
2022-08-24T11:38:16.884Z,66.83
2022-08-24T11:40:55.318Z,66.20
2022-08-24T11:44:03.065Z,65.31
2022-08-24T11:46:59.305Z,64.87
2022-08-24T11:49:53.057Z,66.43
2022-08-24T11:52:54.766Z,66.27
2022-08-24T11:55:51.617Z,65.94
2022-08-24T11:58:49.312Z,66.75
2022-08-24T12:01:33.891Z,68.06
2022-08-24T12:04:12.398Z,69.73
2022-08-24T12:07:23.230Z,69.85
2022-08-24T12:10:11.556Z,70.22
2022-08-24T12:12:53.886Z,70.37
2022-08-24T12:15:32.254Z,71.72
2022-08-24T12:18:43.029Z,72.00
2022-08-24T12:21:21.165Z,74.06
2022-08-24T12:24:32.626Z,73.88
2022-08-24T12:27:30.818Z,75.64
2022-08-24T12:30:06.837Z,76.46
2022-08-24T12:32:50.525Z,75.49
2022-08-24T12:35:43.981Z,75.84
2022-08-24T12:38:28.302Z,76.43
2022-08-24T12:40:59.466Z,76.18
2022-08-24T12:43:48.251Z,77.21
2022-08-24T12:46:22.115Z,78.20
2022-08-24T12:49:10.118Z,78.06
2022-08-24T12:52:04.159Z,77.38
2022-08-24T12:54:59.205Z,76.91
2022-08-24T12:57:56.886Z,77.63
2022-08-24T13:00:38.391Z,78.07
2022-08-24T13:03:24.462Z,78.71
2022-08-24T13:05:59.784Z,80.91
2022-08-24T13:08:49.186Z,83.19
2022-08-24T13:11:35.934Z,85.36
2022-08-24T13:14:20.808Z,88.92
2022-08-24T13:17:10.969Z,88.59
2022-08-24T13:19:44.808Z,88.49
2022-08-24T13:22:14.317Z,88.71
2022-08-24T13:24:54.209Z,89.67
2022-08-24T13:27:23.702Z,89.82
2022-08-24T13:30:06.575Z,89.88
2022-08-24T13:32:57.387Z,90.12
2022-08-24T13:35:41.158Z,90.10
2022-08-24T13:38:42.216Z,90.08
2022-08-24T13:41:41.386Z,92.01
2022-08-24T13:44:34.118Z,94.62
2022-08-24T13:47:12.098Z,100.00
2022-08-24T13:50:13.367Z,100.00
2022-08-24T13:53:25.299Z,100.00
2022-08-24T13:56:10.775Z,100.00
2022-08-24T13:58:55.002Z,100.00
2022-08-24T14:02:11.653Z,99.61
2022-08-24T14:04:51.017Z,100.00
2022-08-24T14:07:49.099Z,99.38
2022-08-24T14:10:35.831Z,98.57
2022-08-24T14:13:24.582Z,98.83
2022-08-24T14:16:23.110Z,98.40
2022-08-24T14:18:52.237Z,98.27
2022-08-24T14:21:25.799Z,99.39
2022-08-24T14:24:04.324Z,98.88
2022-08-24T14:26:37.793Z,97.42
2022-08-24T14:29:19.971Z,96.35
2022-08-24T14:32:12.542Z,94.96
2022-08-24T14:34:52.776Z,97.10
2022-08-24T14:37:28.715Z,96.96
2022-08-24T14:39:59.679Z,98.34
2022-08-24T14:42:44.450Z,99.21
2022-08-24T14:45:52.161Z,99.27
2022-08-24T14:48:34.679Z,100.00
2022-08-24T14:51:09.372Z,99.04
2022-08-24T14:54:04.465Z,100.00
2022-08-24T14:56:49.165Z,99.87
2022-08-24T14:59:47.282Z,100.00
2022-08-24T15:02:58.089Z,100.00
2022-08-24T15:05:33.294Z,100.00
2022-08-24T15:08:28.746Z,100.00
2022-08-24T15:11:08.674Z,100.00
2022-08-24T15:14:02.727Z,100.00
2022-08-24T15:16:53.249Z,100.00
2022-08-24T15:19:48.980Z,100.00
2022-08-24T15:22:52.841Z,100.00
2022-08-24T15:25:43.673Z,100.00
2022-08-24T15:28:16.495Z,100.00
2022-08-24T15:31:00.474Z,100.00
2022-08-24T15:33:31.736Z,100.00
2022-08-24T15:36:15.784Z,100.00
2022-08-24T15:38:46.007Z,100.00
2022-08-24T15:41:33.419Z,100.00
2022-08-24T15:44:34.564Z,100.00
2022-08-24T15:47:11.989Z,100.00
2022-08-24T15:50:18.890Z,100.00
2022-08-24T15:53:04.269Z,100.00
2022-08-24T15:55:48.456Z,100.00
2022-08-24T15:58:40.935Z,100.00
2022-08-24T16:01:31.280Z,100.00
2022-08-24T16:04:11.222Z,100.00
2022-08-24T16:06:48.928Z,100.00
2022-08-24T16:09:23.735Z,100.00
2022-08-24T16:11:58.973Z,100.00
2022-08-24T16:14:30.213Z,100.00
2022-08-24T16:17:02.848Z,100.00
2022-08-24T16:19:36.529Z,100.00
2022-08-24T16:22:11.795Z,100.00
2022-08-24T16:24:44.081Z,100.00
2022-08-24T16:27:14.451Z,100.00
2022-08-24T16:29:46.063Z,100.00
2022-08-24T16:32:30.055Z,100.00
2022-08-24T16:35:10.411Z,100.00
2022-08-24T16:37:40.921Z,100.00
2022-08-24T16:40:11.150Z,100.00
2022-08-24T16:42:42.901Z,100.00
2022-08-24T16:45:16.488Z,100.00
2022-08-24T16:47:47.895Z,100.00
2022-08-24T16:50:20.776Z,100.00
2022-08-24T16:52:51.296Z,100.00
2022-08-24T16:55:21.278Z,100.00
2022-08-24T16:57:51.773Z,100.00
2022-08-24T17:00:23.258Z,100.00
2022-08-24T17:02:53.094Z,100.00
2022-08-24T17:05:23.548Z,100.00
2022-08-24T17:07:53.181Z,100.00
2022-08-24T17:10:24.968Z,100.00
2022-08-24T17:12:54.646Z,100.00
2022-08-24T17:15:23.826Z,100.00
2022-08-24T17:18:06.572Z,100.00
2022-08-24T17:20:36.231Z,100.00
2022-08-24T17:23:05.850Z,100.00
2022-08-24T17:25:35.479Z,100.00
2022-08-24T17:28:05.543Z,100.00
2022-08-24T17:30:36.070Z,100.00
2022-08-24T17:33:06.479Z,100.00
2022-08-24T17:35:36.558Z,100.00
2022-08-24T17:38:06.265Z,100.00
2022-08-24T17:40:36.409Z,100.00
2022-08-24T17:43:06.841Z,100.00
2022-08-24T17:45:37.862Z,100.00
2022-08-24T17:48:07.425Z,100.00
2022-08-24T17:50:37.109Z,100.00
2022-08-24T17:53:06.443Z,100.00
2022-08-24T17:55:36.499Z,100.00
2022-08-24T17:58:06.034Z,100.00
2022-08-24T18:00:35.182Z,100.00
2022-08-24T18:03:04.680Z,100.00
2022-08-24T18:05:35.856Z,100.00
2022-08-24T18:08:05.615Z,100.00
2022-08-24T18:10:34.960Z,100.00
2022-08-24T18:13:05.171Z,100.00
2022-08-24T18:15:36.715Z,100.00
2022-08-24T18:18:09.478Z,100.00
2022-08-24T18:20:42.399Z,100.00
2022-08-24T18:23:12.595Z,100.00
2022-08-24T18:25:49.024Z,100.00
2022-08-24T18:28:24.048Z,100.00
2022-08-24T18:30:53.647Z,100.00
2022-08-24T18:33:22.735Z,100.00
2022-08-24T18:35:52.036Z,100.00
2022-08-24T18:38:21.048Z,100.00
2022-08-24T18:40:52.345Z,100.00
2022-08-24T18:43:25.263Z,100.00
2022-08-24T18:45:55.140Z,100.00
2022-08-24T18:48:24.942Z,100.00
2022-08-24T18:50:54.519Z,100.00
2022-08-24T18:53:27.249Z,100.00
2022-08-24T18:55:56.923Z,100.00
2022-08-24T18:58:26.127Z,100.00
2022-08-24T19:00:58.169Z,100.00
2022-08-24T19:03:28.976Z,100.00
2022-08-24T19:05:58.428Z,100.00
2022-08-24T19:08:27.606Z,100.00
2022-08-24T19:10:57.554Z,100.00
2022-08-24T19:13:27.563Z,100.00
2022-08-24T19:15:57.086Z,100.00
2022-08-24T19:18:26.788Z,100.00
2022-08-24T19:20:59.139Z,100.00
2022-08-24T19:23:35.717Z,100.00
2022-08-24T19:26:06.234Z,100.00
2022-08-24T19:28:36.294Z,100.00
2022-08-24T19:31:12.250Z,100.00
2022-08-24T19:33:49.821Z,100.00
2022-08-24T19:36:20.257Z,100.00
2022-08-24T19:38:49.820Z,100.00
2022-08-24T19:41:20.639Z,100.00
2022-08-24T19:44:11.957Z,100.00
2022-08-24T19:46:53.146Z,100.00
2022-08-24T19:49:22.563Z,100.00
2022-08-24T19:51:52.506Z,100.00
2022-08-24T19:54:21.903Z,100.00
2022-08-24T19:56:55.459Z,100.00
2022-08-24T19:59:33.063Z,100.00
2022-08-24T20:02:03.858Z,100.00
2022-08-24T20:04:33.014Z,100.00
2022-08-24T20:07:02.273Z,100.00
2022-08-24T20:09:33.995Z,100.00
2022-08-24T20:12:03.389Z,100.00
2022-08-24T20:14:37.200Z,100.00
2022-08-24T20:17:07.690Z,100.00
2022-08-24T20:19:40.318Z,100.00
2022-08-24T20:22:13.590Z,100.00
2022-08-24T20:24:43.611Z,100.00
2022-08-24T20:27:24.736Z,100.00
2022-08-24T20:29:55.217Z,100.00
2022-08-24T20:32:24.713Z,100.00
2022-08-24T20:34:53.735Z,100.00
2022-08-24T20:37:27.460Z,100.00
2022-08-24T20:39:58.089Z,100.00
2022-08-24T20:42:29.675Z,100.00
2022-08-24T20:45:01.293Z,100.00
2022-08-24T20:47:30.427Z,100.00
2022-08-24T20:49:59.390Z,100.00
2022-08-24T20:52:29.158Z,100.00
2022-08-24T20:54:58.158Z,100.00
2022-08-24T20:57:27.458Z,100.00
2022-08-24T20:59:56.751Z,100.00
2022-08-24T21:02:26.138Z,100.00
2022-08-24T21:04:55.070Z,100.00
2022-08-24T21:07:24.389Z,100.00
2022-08-24T21:09:53.802Z,100.00
2022-08-24T21:12:23.115Z,100.00
2022-08-24T21:14:55.435Z,100.00
2022-08-24T21:17:26.607Z,100.00
2022-08-24T21:19:55.715Z,100.00
2022-08-24T21:22:24.845Z,100.00
2022-08-24T21:24:54.172Z,100.00
2022-08-24T21:27:24.517Z,100.00
2022-08-24T21:29:53.617Z,100.00
2022-08-24T21:32:41.814Z,100.00
2022-08-24T21:35:11.568Z,100.00
2022-08-24T21:37:44.673Z,100.00
2022-08-24T21:40:14.102Z,100.00
2022-08-24T21:42:43.525Z,100.00
2022-08-24T21:45:13.704Z,100.00
2022-08-24T21:47:43.087Z,100.00
2022-08-24T21:50:13.508Z,100.00
2022-08-24T21:52:42.773Z,100.00
2022-08-24T21:55:15.126Z,100.00
2022-08-24T21:57:44.706Z,100.00
2022-08-24T22:00:17.367Z,100.00
2022-08-24T22:02:46.915Z,100.00
2022-08-24T22:05:18.029Z,100.00
2022-08-24T22:07:47.355Z,100.00
2022-08-24T22:10:16.774Z,100.00
2022-08-24T22:12:46.566Z,100.00
2022-08-24T22:15:17.205Z,100.00
2022-08-24T22:17:53.665Z,100.00
2022-08-24T22:20:23.311Z,100.00
2022-08-24T22:22:52.842Z,100.00
2022-08-24T22:25:22.368Z,100.00
2022-08-24T22:27:51.659Z,100.00
2022-08-24T22:30:21.074Z,100.00
2022-08-24T22:32:50.827Z,100.00
2022-08-24T22:35:20.403Z,100.00
2022-08-24T22:37:49.599Z,100.00
2022-08-24T22:40:19.867Z,100.00
2022-08-24T22:42:51.379Z,100.00
2022-08-24T22:45:22.054Z,100.00
2022-08-24T22:47:51.381Z,100.00
2022-08-24T22:50:20.567Z,100.00
2022-08-24T22:52:49.872Z,100.00
2022-08-24T22:55:19.241Z,100.00
2022-08-24T22:57:51.335Z,100.00
2022-08-24T23:00:21.556Z,100.00
2022-08-24T23:02:51.337Z,100.00
2022-08-24T23:05:20.583Z,100.00
2022-08-24T23:07:49.704Z,100.00
2022-08-24T23:10:18.874Z,100.00
2022-08-24T23:12:48.244Z,100.00
2022-08-24T23:15:17.382Z,100.00
2022-08-24T23:17:46.688Z,100.00
2022-08-24T23:20:16.063Z,100.00
2022-08-24T23:22:45.053Z,100.00
2022-08-24T23:25:15.173Z,100.00
2022-08-24T23:27:46.548Z,100.00
2022-08-24T23:30:19.237Z,100.00
2022-08-24T23:33:06.676Z,100.00
2022-08-24T23:35:37.374Z,100.00
2022-08-24T23:38:06.433Z,100.00
2022-08-24T23:40:35.408Z,100.00
2022-08-24T23:43:04.797Z,100.00
2022-08-24T23:45:33.651Z,100.00
2022-08-24T23:48:03.302Z,100.00
2022-08-24T23:50:33.639Z,100.00
2022-08-24T23:53:02.744Z,100.00
2022-08-24T23:55:31.668Z,100.00
2022-08-24T23:58:01.026Z,100.00
